METAR Data
IDs: Format: Raw Decoded Include TAF

Data at: 1102 UTC 26 Sep 2018

KJTC 261055Z AUTO 21008KT 10SM CLR 08/06 A3030 RMK AO2
KJTC 261035Z AUTO 20006KT 10SM CLR 09/06 A3030 RMK AO2
KJTC 261015Z AUTO 22006KT 10SM CLR 08/06 A3030 RMK AO2
KJTC 260955Z AUTO 00000KT 10SM CLR 08/06 A3030 RMK AO2
KJTC 260935Z AUTO 21006KT 10SM CLR 11/07 A3030 RMK AO2
KJTC 260915Z AUTO 20006KT 10SM CLR 11/06 A3030 RMK AO2
KJTC 260855Z AUTO 19006KT 10SM CLR 10/06 A3030 RMK AO2
KJTC 260835Z AUTO 22006KT 10SM CLR 11/07 A3029 RMK AO2
KJTC 260815Z AUTO 21007KT 10SM CLR 11/07 A3029 RMK AO2
KJTC 260755Z AUTO 00000KT 10SM CLR 12/07 A3029 RMK AO2
KJTC 260735Z AUTO 13004KT 10SM CLR 11/07 A3029 RMK AO2
KJTC 260715Z AUTO 16006KT 10SM CLR 12/07 A3029 RMK AO2
KJTC 260655Z AUTO 21007KT 10SM FEW080 12/07 A3029 RMK AO2
KJTC 260635Z AUTO 18006KT 10SM BKN080 BKN110 12/07 A3029 RMK AO2
KJTC 260615Z AUTO 21007KT 10SM SCT080 OVC110 13/08 A3029 RMK AO2
KJTC 260555Z AUTO 18007KT 10SM BKN110 13/08 A3029 RMK AO2
KJTC 260535Z AUTO 22006G11KT 10SM SCT120 13/08 A3029 RMK AO2
KJTC 260515Z AUTO 22006KT 10SM CLR 13/08 A3029 RMK AO2
KJTC 260455Z AUTO 22009KT 10SM CLR 13/09 A3029 RMK AO2
KJTC 260435Z AUTO 20005KT 10SM BKN080 12/09 A3028 RMK AO2
KJTC 260415Z AUTO 20004KT 10SM BKN075 12/09 A3028 RMK AO2
KJTC 260355Z AUTO 23005KT 10SM FEW075 SCT090 12/09 A3028 RMK AO2
KJTC 260335Z AUTO 18006KT 10SM SCT090 13/09 A3028 RMK AO2
KJTC 260315Z AUTO 24003KT 10SM SCT075 14/10 A3028 RMK AO2
KJTC 260255Z AUTO 00000KT 10SM BKN080 15/10 A3027 RMK AO2
KJTC 260235Z AUTO 15003KT 10SM CLR 14/10 A3027 RMK AO2
KJTC 260215Z AUTO 23007KT 10SM SCT100 14/11 A3026 RMK AO2
KJTC 260155Z AUTO 24007KT 10SM BKN095 BKN110 15/10 A3026 RMK AO2
KJTC 260135Z AUTO 21004KT 10SM BKN085 17/10 A3026 RMK AO2 LTG DSNT SE
KJTC 260115Z AUTO 19005KT 10SM FEW080 BKN090 BKN110 17/10 A3026 RMK AO2
KJTC 260055Z AUTO 18006KT 10SM FEW085 BKN110 18/09 A3026 RMK AO2
KJTC 260035Z AUTO 16005KT 10SM FEW039 SCT085 BKN110 18/08 A3026 RMK AO2
KJTC 260015Z AUTO 15007KT 10SM BKN085 BKN100 19/07 A3026 RMK AO2 LTG DSNT E
KJTC 252355Z AUTO 13006KT 10SM BKN100 19/06 A3025 RMK AO2
KJTC 252335Z AUTO 12008KT 10SM SCT100 19/08 A3025 RMK AO2
KJTC 252315Z AUTO 08009KT 10SM FEW048 FEW095 FEW120 19/09 A3025 RMK AO2 LTG DSNT NE AND S
KJTC 252255Z AUTO 02006KT 10SM BKN046 BKN120 20/09 A3025 RMK AO2
KJTC 252235Z AUTO 23005KT 10SM VCTS SCT045 SCT080 20/09 A3025 RMK AO2 LTG DSNT NE AND S
KJTC 252215Z AUTO 17007G12KT 130V190 10SM VCTS FEW080 SCT110 21/09 A3025 RMK AO2 LTG DSNT NE
KJTC 252155Z AUTO 17009KT 10SM VCTS FEW036 FEW046 SCT110 20/10 A3025 RMK AO2 LTG DSNT ALQDS
KJTC 252135Z AUTO 19012KT 10SM FEW036 BKN047 BKN075 20/11 A3024 RMK AO2 LTG DSNT ALQDS
KJTC 252115Z AUTO 16011G16KT 10SM FEW044 BKN075 OVC110 20/09 A3024 RMK AO2 LTG DSNT ALQDS
KJTC 252055Z AUTO 25004KT 10SM FEW043 SCT070 BKN080 21/09 A3024 RMK AO2 LTG DSNT S AND SW
KJTC 252035Z AUTO 00000KT 10SM FEW055 BKN070 BKN075 22/08 A3024 RMK AO2
KJTC 252015Z AUTO 19004KT 10SM FEW040 FEW060 SCT070 21/08 A3024 RMK AO2
KJTC 251955Z AUTO 00000KT 10SM FEW035 FEW048 SCT070 22/08 A3024 RMK AO2 LTG DSNT E-S
KJTC 251935Z AUTO 00000KT 10SM BKN070 BKN080 BKN100 21/07 A3026 RMK AO2 LTG DSNT E
KJTC 251915Z AUTO 00000KT 10SM FEW042 FEW060 BKN080 20/09 A3027 RMK AO2 LTG DSNT SE AND S
KJTC 251855Z AUTO VRB04KT 10SM FEW043 SCT060 BKN070 18/12 A3027 RMK AO2 LTG DSNT E-S P0003
KJTC 251835Z AUTO 31005G11KT 10SM VCTS FEW003 FEW022 OVC075 17/13 A3027 RMK AO2 LTG DSNT E AND SE
KJTC 251815Z AUTO 32015G20KT 1 3/4SM RA SCT003 SCT019 OVC055 15/12 A3027 RMK AO2
KJTC 251755Z AUTO 26015KT 9SM -DZ FEW035 SCT055 BKN100 19/12 A3027 RMK AO2 LTG DSNT SE-W
KJTC 251735Z AUTO 00000G10KT 10SM FEW034 FEW055 SCT100 23/07 A3027 RMK AO2
KJTC 251715Z AUTO VRB03KT 10SM CLR 22/07 A3027 RMK AO2
KJTC 251655Z AUTO 36005KT 10SM CLR 22/08 A3028 RMK AO2
KJTC 251635Z AUTO 00000KT 10SM CLR 21/08 A3028 RMK AO2
KJTC 251615Z AUTO VRB04KT 10SM CLR 20/08 A3027 RMK AO2
KJTC 251555Z AUTO 00000KT 10SM CLR 20/08 A3027 RMK AO2
KJTC 251535Z AUTO 00000KT 10SM CLR 19/08 A3027 RMK AO2
KJTC 251515Z AUTO 00000KT 10SM CLR 18/09 A3027 RMK AO2
KJTC 251455Z AUTO 00000KT 10SM CLR 17/09 A3027 RMK AO2
KJTC 251435Z AUTO 00000KT 10SM CLR 16/09 A3027 RMK AO2
KJTC 251415Z AUTO 22004KT 10SM CLR 14/09 A3026 RMK AO2
KJTC 251355Z AUTO 23004KT 10SM CLR 11/09 A3026 RMK AO2
KJTC 251335Z AUTO 00000KT 10SM CLR 10/08 A3026 RMK AO2
KJTC 251315Z AUTO 14003KT 10SM CLR 11/08 A3026 RMK AO2
KJTC 251255Z AUTO 00000KT 10SM CLR 11/08 A3026 RMK AO2
KJTC 251235Z AUTO 19005KT 10SM FEW050 11/08 A3025 RMK AO2
KJTC 251215Z AUTO 21005KT 10SM FEW050 FEW065 12/08 A3025 RMK AO2
KJTC 251155Z AUTO 21003KT 10SM FEW050 FEW065 12/09 A3024 RMK AO2
KJTC 251135Z AUTO 22006KT 10SM CLR 12/09 A3024 RMK AO2
KJTC 251115Z AUTO 20005KT 10SM FEW049 12/09 A3024 RMK AO2
KJTC 251055Z AUTO 25005KT 10SM BKN047 14/09 A3023 RMK AO2
KJTC 251035Z AUTO 00000KT 10SM BKN044 BKN050 15/09 A3023 RMK AO2
KJTC 251015Z AUTO 24005KT 10SM FEW048 13/09 A3023 RMK AO2
KJTC 250955Z AUTO 23007KT 10SM FEW060 FEW070 SCT085 14/09 A3023 RMK AO2
KJTC 250935Z AUTO 23007KT 10SM FEW055 SCT065 BKN075 15/09 A3023 RMK AO2
KJTC 250915Z AUTO 24009KT 10SM FEW042 SCT048 BKN075 15/09 A3023 RMK AO2
KJTC 250855Z AUTO 24008KT 10SM SCT043 BKN048 OVC055 15/09 A3023 RMK AO2
KJTC 250835Z AUTO 24009KT 10SM BKN045 15/09 A3023 RMK AO2
KJTC 250810Z AUTO 23008KT 10SM FEW045 13/09 A3022 RMK AO2
KJTC 250755Z AUTO 23008KT 10SM SCT045 13/09 A3022 RMK AO2
KJTC 250735Z AUTO 21007KT 10SM BKN045 13/08 A3022 RMK AO2
KJTC 250715Z AUTO 20006KT 10SM SCT045 12/08 A3022 RMK AO2
KJTC 250655Z AUTO 23007KT 10SM SCT047 13/08 A3022 RMK AO2
KJTC 250635Z AUTO 20005KT 10SM SCT045 14/08 A3022 RMK AO2
KJTC 250615Z AUTO 19004KT 10SM SCT045 14/08 A3022 RMK AO2
KJTC 250555Z AUTO 00000KT 10SM CLR 14/08 A3022 RMK AO2
KJTC 250535Z AUTO 00000KT 10SM -RA CLR 15/08 A3022 RMK AO2 LTG DSNT N
KJTC 250515Z AUTO 23004KT 10SM CLR 17/08 A3021 RMK AO2
KJTC 250455Z AUTO 27006KT 10SM CLR 17/08 A3021 RMK AO2
KJTC 250435Z AUTO 02008KT 10SM CLR 16/07 A3021 RMK AO2
KJTC 250415Z AUTO 00000KT 10SM CLR 18/06 A3020 RMK AO2
KJTC 250355Z AUTO 00000KT 10SM CLR 18/06 A3019 RMK AO2
KJTC 250335Z AUTO 21005KT 10SM CLR 18/06 A3019 RMK AO2
KJTC 250315Z AUTO VRB03KT 10SM CLR 18/06 A3018 RMK AO2
KJTC 250255Z AUTO 00000KT 10SM CLR 19/06 A3017 RMK AO2
KJTC 250235Z AUTO 00000KT 10SM CLR 18/05 A3017 RMK AO2
KJTC 250215Z AUTO 00000KT 10SM CLR 19/05 A3016 RMK AO2
KJTC 250155Z AUTO 00000KT 10SM BKN085 19/05 A3016 RMK AO2
KJTC 250135Z AUTO 28004G10KT 10SM OVC090 20/05 A3015 RMK AO2
KJTC 250110Z AUTO 24008KT 10SM OVC090 22/05 A3015 RMK AO2
KJTC 250050Z AUTO 26008G14KT 10SM BKN090 23/04 A3014 RMK AO2
KJTC 250035Z AUTO 26011G18KT 10SM BKN090 23/04 A3014 RMK AO2
KJTC 250010Z AUTO 24016KT 10SM BKN085 24/04 A3014 RMK AO2
KJTC 242355Z AUTO 26014G20KT 10SM BKN090 25/03 A3014 RMK AO2
KJTC 242330Z AUTO 26016KT 10SM FEW065 BKN090 26/03 A3014 RMK AO2
KJTC 242315Z AUTO 25013G18KT 10SM BKN090 26/02 A3013 RMK AO2